Time;durP1;ratioP1;P1;durP2;ratioP2;P2;SDS_P1;SDS_P2;PMS_P1;PMS_P2;Temp;Humidity;BMP_temperature;BMP_pressure;BME280_temperature;BME280_humidity;BME280_pressure;Samples;Min_cycle;Max_cycle;Signal;HPM_P1;HPM_P2
2021/11/27 00:02:00;;;;;;;447.02;213.18;;;;;;;10.12;86.25;98468.81;4989959;28;20047;-79
2021/11/27 00:04:45;;;;;;;345.95;164.38;;;;;;;10.14;86.74;98460.31;4997153;28;20047;-79
2021/11/27 00:07:30;;;;;;;359.80;177.90;;;;;;;10.14;87.24;98452.16;4987907;28;20050;-78
2021/11/27 00:10:18;;;;;;;420.05;206.65;;;;;;;10.18;87.04;98434.00;4997241;28;20046;-79
2021/11/27 00:13:05;;;;;;;355.15;157.07;;;;;;;10.15;86.55;98438.22;4996628;28;20042;-79
2021/11/27 00:15:51;;;;;;;455.48;210.32;;;;;;;10.17;87.23;98441.38;4993745;28;20050;-79
2021/11/27 00:18:36;;;;;;;461.05;228.32;;;;;;;10.15;87.37;98434.72;4986870;28;20054;-79
2021/11/27 00:21:21;;;;;;;381.05;188.38;;;;;;;10.15;87.24;98445.59;4985668;28;20038;-79
2021/11/27 00:24:06;;;;;;;479.95;238.63;;;;;;;10.15;87.36;98435.50;4993840;28;20038;-79
2021/11/27 00:26:52;;;;;;;527.67;265.88;;;;;;;10.16;88.23;98433.59;4991747;28;20042;-80
2021/11/27 00:29:37;;;;;;;496.50;251.80;;;;;;;10.17;87.90;98432.44;4996240;28;20054;-80
2021/11/27 00:32:23;;;;;;;397.63;193.18;;;;;;;10.16;87.73;98423.50;4994374;28;20409;-79
2021/11/27 00:35:09;;;;;;;506.65;254.70;;;;;;;10.17;87.91;98422.38;4990841;28;20050;-78
2021/11/27 00:37:56;;;;;;;487.48;250.13;;;;;;;10.19;88.29;98420.06;4996315;28;20046;-80
2021/11/27 00:40:44;;;;;;;499.40;251.25;;;;;;;10.19;88.52;98414.63;4979455;28;20046;-84
2021/11/27 00:43:30;;;;;;;511.50;258.58;;;;;;;10.19;88.81;98414.63;4983714;28;20042;-80
2021/11/27 00:46:15;;;;;;;381.35;188.90;;;;;;;10.18;88.22;98421.22;4979642;28;20034;-79
2021/11/27 00:49:03;;;;;;;308.92;136.77;;;;;;;10.15;87.27;98421.16;4983866;28;20034;-79
2021/11/27 00:51:48;;;;;;;503.85;256.13;;;;;;;10.17;88.29;98422.38;4977411;28;20042;-79
2021/11/27 00:54:33;;;;;;;348.75;166.88;;;;;;;10.16;87.97;98420.00;4996470;28;20042;-78
2021/11/27 00:57:18;;;;;;;211.23;94.90;;;;;;;10.15;88.21;98426.59;4979149;28;20497;-80
2021/11/27 01:00:07;;;;;;;436.50;213.77;;;;;;;10.13;86.99;98431.59;4992190;28;20042;-79
2021/11/27 01:02:52;;;;;;;540.08;281.85;;;;;;;10.18;88.31;98423.94;4981573;28;20432;-79
2021/11/27 01:05:41;;;;;;;580.28;302.63;;;;;;;10.17;88.62;98430.50;4978910;28;20047;-79
2021/11/27 01:08:28;;;;;;;586.15;302.15;;;;;;;10.17;89.07;98425.06;4977489;28;20043;-80
2021/11/27 01:11:18;;;;;;;588.95;308.27;;;;;;;10.19;89.18;98425.50;4979129;28;20046;-79
2021/11/27 01:14:11;;;;;;;584.25;308.08;;;;;;;10.20;89.30;98427.06;4994737;28;20050;-80
2021/11/27 01:17:00;;;;;;;122.05;64.57;;;;;;;10.12;87.79;98430.00;4990897;28;20042;-78
2021/11/27 01:19:46;;;;;;;227.65;97.07;;;;;;;10.08;85.93;98427.25;4991670;28;20050;-79
2021/11/27 01:22:30;;;;;;;251.38;108.60;;;;;;;10.06;85.21;98426.84;4992042;28;20042;-79
2021/11/27 01:25:17;;;;;;;134.77;61.33;;;;;;;10.06;84.50;98421.41;4996245;28;20420;-79
2021/11/27 01:28:03;;;;;;;132.98;62.35;;;;;;;10.06;84.95;98413.25;4980941;28;20042;-79
2021/11/27 01:30:51;;;;;;;105.68;48.22;;;;;;;9.99;82.63;98415.91;4978958;28;20046;-79
2021/11/27 01:33:36;;;;;;;133.90;66.05;;;;;;;10.03;84.42;98416.72;4992824;28;20034;-79
2021/11/27 01:36:21;;;;;;;162.38;73.75;;;;;;;10.03;83.71;98422.16;4997329;28;20050;-79
2021/11/27 01:39:07;;;;;;;131.88;62.45;;;;;;;10.03;83.43;98408.56;4995263;28;20042;-79
2021/11/27 01:41:52;;;;;;;430.50;211.30;;;;;;;10.05;83.69;98406.28;4980431;28;20508;-78
2021/11/27 01:44:38;;;;;;;469.50;231.65;;;;;;;10.10;85.75;98400.53;4998198;28;20046;-80
2021/11/27 01:47:23;;;;;;;548.25;280.35;;;;;;;10.07;86.19;98398.53;4981862;28;20054;-79
2021/11/27 01:50:09;;;;;;;228.35;107.95;;;;;;;10.04;85.71;98403.94;4980380;28;20432;-79
2021/11/27 01:52:54;;;;;;;100.00;51.28;;;;;;;10.02;84.13;98393.44;4984335;28;20034;-79
2021/11/27 01:55:39;;;;;;;120.40;54.33;;;;;;;10.01;83.76;98396.50;4981638;28;20042;-79
2021/11/27 01:58:24;;;;;;;227.40;94.32;;;;;;;10.00;83.49;98393.03;4980318;28;20046;-79
2021/11/27 02:01:19;;;;;;;69.78;35.45;;;;;;;10.02;82.77;98388.00;4982439;28;20042;-79
2021/11/27 02:04:08;;;;;;;91.72;44.75;;;;;;;9.97;81.63;98385.59;4982565;28;20046;-79
2021/11/27 02:06:54;;;;;;;447.00;218.13;;;;;;;9.99;83.39;98377.88;4985177;28;20073;-78
2021/11/27 02:09:39;;;;;;;297.88;142.63;;;;;;;9.97;84.66;98374.75;4999430;28;20050;-79
2021/11/27 02:12:24;;;;;;;152.13;70.18;;;;;;;9.94;83.06;98370.06;4982438;28;20035;-79
2021/11/27 02:15:10;;;;;;;;;;;;;;;9.94;82.79;98364.63;4994854;28;20051;-80
2021/11/27 02:17:55;;;;;;;74.32;38.67;;;;;;;9.92;82.56;98366.13;4984360;28;19913;-79
2021/11/27 02:20:56;;;;;;;110.47;52.33;;;;;;;9.91;81.91;98367.28;4982096;28;20054;-80
2021/11/27 02:23:42;;;;;;;399.33;189.50;;;;;;;9.90;81.88;98369.25;4985668;28;20026;-79
2021/11/27 02:26:33;;;;;;;391.00;184.10;;;;;;;9.91;81.88;98376.22;4983234;28;20412;-80
2021/11/27 02:29:25;;;;;;;151.90;75.32;;;;;;;9.90;82.31;98363.03;4979998;28;20504;-79
2021/11/27 02:32:10;;;;;;;82.70;41.03;;;;;;;9.82;80.92;98362.13;4974493;28;20089;-79
2021/11/27 02:34:55;;;;;;;62.30;29.80;;;;;;;9.84;80.00;98355.19;4976152;28;20054;-79
2021/11/27 02:37:40;;;;;;;42.75;21.00;;;;;;;9.87;78.57;98359.09;4973976;28;20123;-79
2021/11/27 02:40:26;;;;;;;55.60;25.83;;;;;;;9.85;78.80;98345.88;4976526;28;20523;-79
2021/11/27 02:43:11;;;;;;;65.22;31.48;;;;;;;9.78;78.44;98364.03;4991081;28;20053;-78
2021/11/27 02:45:57;;;;;;;79.05;38.22;;;;;;;9.74;79.29;98360.50;4976622;28;20049;-79
2021/11/27 02:48:42;;;;;;;53.58;26.13;;;;;;;9.73;78.59;98367.84;4983252;28;20049;-78
2021/11/27 02:51:26;;;;;;;;;;;;;;;9.79;78.85;98384.59;4985623;28;20045;-78
2021/11/27 02:54:12;;;;;;;136.93;61.92;;;;;;;9.74;78.91;98376.78;4980773;28;19918;-78
2021/11/27 02:56:56;;;;;;;118.20;57.22;;;;;;;9.72;79.71;98387.19;4983551;28;20046;-78
2021/11/27 02:59:42;;;;;;;96.65;44.92;;;;;;;9.72;79.46;98379.06;4997068;28;20050;-79
2021/11/27 03:02:27;;;;;;;442.95;218.65;;;;;;;9.76;80.77;98388.03;4995432;28;20710;-78
2021/11/27 03:05:14;;;;;;;438.33;212.63;;;;;;;9.78;82.13;98393.88;4992210;28;20425;-79
2021/11/27 03:07:59;;;;;;;451.60;221.52;;;;;;;9.84;84.18;98397.84;4994569;28;20050;-79
2021/11/27 03:10:44;;;;;;;352.55;181.48;;;;;;;9.86;85.20;98417.25;4977957;28;20046;-79
2021/11/27 03:13:33;;;;;;;455.88;234.68;;;;;;;9.86;85.72;98418.03;5000044;28;20038;-79
2021/11/27 03:16:18;;;;;;;523.40;282.90;;;;;;;9.85;86.39;98415.72;4971870;28;20046;-77
2021/11/27 03:19:03;;;;;;;288.48;135.73;;;;;;;9.87;86.16;98410.69;4983342;28;20038;-79
2021/11/27 03:21:48;;;;;;;277.23;129.98;;;;;;;9.90;86.53;98404.53;4985042;28;20046;-79
2021/11/27 03:24:34;;;;;;;428.27;227.80;;;;;;;9.93;86.96;98390.22;4978907;28;20039;-79
2021/11/27 03:27:20;;;;;;;463.05;239.75;;;;;;;9.92;87.36;98388.63;4975097;28;20568;-79
2021/11/27 03:30:09;;;;;;;526.83;280.42;;;;;;;9.96;87.62;98384.03;4970271;28;20046;-78
2021/11/27 03:32:55;;;;;;;491.15;255.88;;;;;;;9.94;88.42;98380.91;4994660;28;20038;-79
2021/11/27 03:35:42;;;;;;;540.28;294.23;;;;;;;9.95;88.15;98387.94;4979778;28;20046;-80
2021/11/27 03:38:29;;;;;;;565.08;298.15;;;;;;;9.95;88.11;98382.50;4975886;28;20493;-79
2021/11/27 03:41:15;;;;;;;445.38;240.73;;;;;;;9.98;88.74;98381.75;4993157;28;20046;-80
2021/11/27 03:44:00;;;;;;;555.85;302.42;;;;;;;9.96;89.07;98373.19;4992401;28;20046;-80
2021/11/27 03:46:46;;;;;;;542.00;298.58;;;;;;;10.00;89.15;98381.38;4982078;28;20042;-80
2021/11/27 03:49:32;;;;;;;554.65;299.10;;;;;;;10.00;89.20;98384.09;4994904;28;20046;-78
2021/11/27 03:52:18;;;;;;;668.85;312.95;;;;;;;9.99;89.47;98388.75;4973811;28;20038;-78
2021/11/27 03:55:03;;;;;;;666.22;278.75;;;;;;;10.00;89.76;98379.47;4965571;28;20056;-78
2021/11/27 03:57:48;;;;;;;579.30;229.48;;;;;;;9.98;89.62;98386.38;4961243;28;20047;-78
2021/11/27 04:00:33;;;;;;;371.85;139.32;;;;;;;9.99;89.47;98404.25;4958665;28;20042;-78
2021/11/27 04:03:19;;;;;;;401.17;136.27;;;;;;;9.99;89.47;98394.19;4972325;28;20038;-78
2021/11/27 04:06:06;;;;;;;256.40;88.68;;;;;;;10.00;89.69;98401.19;4973819;28;20039;-77
2021/11/27 04:08:54;;;;;;;258.15;87.80;;;;;;;10.01;89.75;98402.72;4972068;28;20043;-78
2021/11/27 04:11:40;;;;;;;245.02;86.25;;;;;;;10.02;89.63;98411.66;4974376;28;20042;-77
2021/11/27 04:14:34;;;;;;;147.63;55.50;;;;;;;9.99;89.76;98399.59;4974875;28;20525;-77
2021/11/27 04:17:19;;;;;;;71.82;33.75;;;;;;;9.97;88.36;98404.59;4977441;28;20068;-78
2021/11/27 04:20:05;;;;;;;92.22;38.15;;;;;;;9.96;87.82;98402.25;4982015;28;20621;-78
2021/11/27 04:22:50;;;;;;;92.63;41.00;;;;;;;9.95;87.09;98404.22;4979772;28;20520;-78
2021/11/27 04:25:35;;;;;;;60.05;27.25;;;;;;;9.94;86.48;98402.63;4977408;28;20425;-78
2021/11/27 04:28:20;;;;;;;48.72;22.15;;;;;;;9.97;87.30;98409.25;4996289;28;20062;-78
2021/11/27 04:31:05;;;;;;;64.03;22.50;;;;;;;9.95;86.51;98403.44;4979593;28;20552;-78
2021/11/27 04:33:52;;;;;;;63.47;24.90;;;;;;;9.96;86.43;98416.63;4992102;28;20061;-77
2021/11/27 04:36:36;;;;;;;59.72;24.50;;;;;;;9.94;86.01;98404.56;4981517;28;20413;-77
2021/11/27 04:39:21;;;;;;;59.28;25.88;;;;;;;9.91;84.82;98397.94;4969998;28;20053;-78
2021/11/27 04:42:07;;;;;;;41.75;16.88;;;;;;;9.90;84.04;98396.38;4983810;28;20520;-78
2021/11/27 04:44:52;;;;;;;59.35;26.02;;;;;;;9.90;84.01;98390.97;4981611;28;20085;-78
2021/11/27 04:47:37;;;;;;;81.97;30.08;;;;;;;9.92;84.97;98396.78;4969061;28;20062;-78
2021/11/27 04:50:25;;;;;;;38.33;19.15;;;;;;;9.87;82.60;98402.53;4977732;28;20049;-78
2021/11/27 04:53:11;;;;;;;58.45;27.33;;;;;;;9.90;84.43;98401.81;4963072;28;20050;-78
2021/11/27 04:55:58;;;;;;;63.35;27.73;;;;;;;9.92;85.69;98394.06;4960380;28;20049;-78
2021/11/27 04:58:44;;;;;;;65.32;28.75;;;;;;;9.90;86.06;98392.88;4972473;28;20050;-78
2021/11/27 05:01:30;;;;;;;41.60;22.40;;;;;;;9.87;85.02;98397.09;4959338;28;20050;-78
2021/11/27 05:04:16;;;;;;;61.85;24.33;;;;;;;9.88;84.87;98395.97;4972629;28;20046;-77
2021/11/27 05:07:02;;;;;;;58.92;26.73;;;;;;;9.89;85.30;98394.81;4958337;28;20521;-78
2021/11/27 05:09:46;;;;;;;60.08;27.20;;;;;;;9.90;86.21;98396.38;4965192;28;20050;-78
2021/11/27 05:12:31;;;;;;;35.55;16.83;;;;;;;9.83;84.86;98388.91;4964763;28;20066;-78
2021/11/27 05:15:16;;;;;;;34.70;15.95;;;;;;;9.81;84.28;98391.22;4962424;28;20720;-78
2021/11/27 05:18:03;;;;;;;39.10;19.77;;;;;;;9.76;82.07;98388.81;4973399;28;20054;-78
2021/11/27 05:21:11;;;;;;;42.13;19.30;;;;;;;9.75;83.54;98406.22;5001642;23;20065;-78
2021/11/27 05:23:57;;;;;;;46.25;22.88;;;;;;;9.80;85.35;98407.88;4976271;28;20528;-77
2021/11/27 05:27:13;;;;;;;39.40;19.23;;;;;;;9.78;84.55;98404.72;4957038;28;20054;-77
2021/11/27 05:30:36;;;;;;;34.00;17.30;;;;;;;9.76;83.79;98404.31;4920013;29;20155;-78
2021/11/27 05:33:35;;;;;;;30.23;15.95;;;;;;;9.74;82.04;98409.34;4899077;29;20176;-77
2021/11/27 05:36:22;;;;;;;40.05;20.98;;;;;;;9.75;83.29;98405.47;4935138;29;20521;-77
2021/11/27 05:39:07;;;;;;;21.80;11.93;;;;;;;9.70;82.64;98403.84;4939286;29;20046;-78
2021/11/27 05:41:52;;;;;;;26.42;12.95;;;;;;;9.68;81.08;98400.72;4937593;29;20050;-77
2021/11/27 05:44:38;;;;;;;29.42;15.32;;;;;;;9.67;80.28;98409.22;4941172;29;20513;-78
2021/11/27 05:47:24;;;;;;;20.70;12.30;;;;;;;9.63;77.90;98397.53;4954301;28;20042;-78
2021/11/27 05:50:12;;;;;;;20.77;12.93;;;;;;;9.59;76.96;98391.28;4955671;28;20054;-77
2021/11/27 05:52:57;;;;;;;23.45;13.02;;;;;;;9.56;77.57;98386.56;4953243;28;20050;-77
2021/11/27 05:55:44;;;;;;;36.63;17.00;;;;;;;9.61;79.70;98386.25;4959106;28;20054;-77
2021/11/27 05:58:28;;;;;;;36.90;18.05;;;;;;;9.64;82.68;98389.03;4951318;29;20050;-77
2021/11/27 06:01:13;;;;;;;39.88;19.40;;;;;;;9.64;83.08;98383.63;4953517;28;20062;-78
2021/11/27 06:03:57;;;;;;;43.35;15.57;;;;;;;9.65;82.74;98393.28;4951483;28;20054;-78
2021/11/27 06:06:42;;;;;;;24.75;12.88;;;;;;;9.63;82.09;98387.47;4957464;28;20074;-78
2021/11/27 06:09:27;;;;;;;28.08;14.52;;;;;;;9.63;81.05;98394.81;4955748;28;20706;-77
2021/11/27 06:12:11;;;;;;;23.70;12.95;;;;;;;9.61;80.75;98405.25;4958883;28;20426;-77
2021/11/27 06:14:55;;;;;;;23.60;9.07;;;;;;;9.61;80.28;98410.69;4958187;28;20050;-78
2021/11/27 06:17:40;;;;;;;27.55;14.70;;;;;;;9.58;79.93;98392.41;4956031;28;20054;-77
2021/11/27 06:20:27;;;;;;;18.52;9.30;;;;;;;9.59;79.96;98399.41;4958626;28;20054;-77
2021/11/27 06:23:11;;;;;;;20.05;11.57;;;;;;;9.59;79.71;98407.56;4955681;28;20406;-77
2021/11/27 06:25:56;;;;;;;13.48;8.48;;;;;;;9.56;79.75;98410.97;4947103;28;20051;-77
2021/11/27 06:28:41;;;;;;;15.25;8.38;;;;;;;9.53;79.98;98412.50;4947708;28;20050;-76
2021/11/27 06:31:25;;;;;;;33.10;15.03;;;;;;;9.54;80.39;98416.00;4951739;28;20046;-77
2021/11/27 06:34:10;;;;;;;15.25;9.70;;;;;;;9.54;81.45;98416.00;4955695;28;20285;-77
2021/11/27 06:36:55;;;;;;;14.15;7.72;;;;;;;9.49;80.66;98408.97;4951119;28;20059;-77
2021/11/27 06:39:39;;;;;;;22.92;11.57;;;;;;;9.49;80.92;98410.91;4938820;29;20043;-77
2021/11/27 06:42:25;;;;;;;27.73;16.05;;;;;;;9.46;79.41;98415.09;4954121;28;20468;-77
2021/11/27 06:45:20;;;;;;;16.23;9.52;;;;;;;9.45;80.23;98418.97;4940049;29;20058;-77
2021/11/27 06:48:18;;;;;;;27.00;14.15;;;;;;;9.41;78.97;98427.03;4937156;29;20071;-77
2021/11/27 06:51:03;;;;;;;20.20;10.75;;;;;;;9.44;80.78;98434.47;4952943;29;20097;-77
2021/11/27 06:53:48;;;;;;;28.10;14.68;;;;;;;9.48;82.80;98434.53;4952573;28;20561;-77
2021/11/27 06:56:33;;;;;;;17.58;9.70;;;;;;;9.47;83.17;98434.88;4937830;29;20055;-76
2021/11/27 06:59:17;;;;;;;21.20;12.65;;;;;;;9.48;84.38;98436.44;4935817;29;20058;-77
2021/11/27 07:02:34;;;;;;;24.83;12.80;;;;;;;9.47;84.08;98437.59;4955099;28;20097;-76
2021/11/27 07:05:37;;;;;;;22.30;13.35;;;;;;;9.49;85.21;98451.59;4953006;29;20066;-76
2021/11/27 07:08:27;;;;;;;21.38;12.57;;;;;;;9.42;82.31;98455.75;4958830;28;20042;-76
2021/11/27 07:11:24;;;;;;;19.77;11.40;;;;;;;9.32;79.11;98469.13;4954724;28;20074;-77
2021/11/27 07:14:09;;;;;;;23.63;11.75;;;;;;;9.32;77.88;98474.53;4957818;28;20529;-77
2021/11/27 07:16:53;;;;;;;16.60;9.10;;;;;;;9.35;80.72;98469.16;4957867;28;20058;-77
2021/11/27 07:19:38;;;;;;;15.20;9.75;;;;;;;9.33;81.80;98467.97;4949960;28;20058;-77
2021/11/27 07:22:24;;;;;;;16.15;9.32;;;;;;;9.38;82.88;98478.53;4936566;29;20098;-76
2021/11/27 07:25:10;;;;;;;28.05;14.32;;;;;;;9.38;82.94;98475.81;4950709;29;20528;-76
2021/11/27 07:28:15;;;;;;;22.83;13.60;;;;;;;9.40;83.98;98473.50;4946475;29;20053;-77
2021/11/27 07:31:01;;;;;;;28.77;14.30;;;;;;;9.45;84.61;98468.56;4949708;28;20286;-77
2021/11/27 07:33:47;;;;;;;28.80;13.65;;;;;;;9.44;84.58;98463.53;4938350;29;20043;-76
2021/11/27 07:36:31;;;;;;;29.10;13.63;;;;;;;9.48;85.41;98466.28;4946971;29;20054;-76
2021/11/27 07:39:16;;;;;;;18.08;10.95;;;;;;;9.49;86.61;98462.44;4951184;28;20058;-76
2021/11/27 07:42:01;;;;;;;20.33;10.82;;;;;;;9.49;87.20;98474.06;4957494;28;20054;-76
2021/11/27 07:45:03;;;;;;;26.65;13.82;;;;;;;9.49;87.50;98482.22;4953673;28;20406;-76
2021/11/27 07:48:32;;;;;;;24.88;15.35;;;;;;;9.49;88.25;98479.50;4935768;29;20627;-77
2021/11/27 07:51:36;;;;;;;40.17;19.02;;;;;;;9.29;80.61;98484.19;4933888;29;20054;-80
2021/11/27 07:54:21;;;;;;;37.70;19.50;;;;;;;9.53;78.52;98479.56;4957657;28;20070;-80
2021/11/27 07:57:06;;;;;;;;;;;;;;;9.34;78.85;98486.63;4957764;28;20054;-77
2021/11/27 07:59:51;;;;;;;31.25;16.38;;;;;;;8.69;79.95;98474.13;4956195;28;19914;-76
2021/11/27 08:02:36;;;;;;;40.20;19.55;;;;;;;8.13;83.18;98477.22;4957855;28;20119;-76
2021/11/27 08:05:21;;;;;;;31.30;16.50;;;;;;;8.51;87.82;98474.59;4958960;28;20054;-75
2021/11/27 08:08:06;;;;;;;29.45;15.20;;;;;;;8.84;87.21;98470.56;4956206;28;20053;-77
2021/11/27 08:10:51;;;;;;;34.25;14.88;;;;;;;8.77;86.57;98475.88;4958028;28;20053;-78
2021/11/27 08:13:37;;;;;;;26.98;13.52;;;;;;;8.59;85.98;98484.41;4958103;28;20043;-79
2021/11/27 08:16:21;;;;;;;39.70;19.05;;;;;;;8.68;84.76;98486.13;4950685;29;20528;-76
2021/11/27 08:19:06;;;;;;;37.75;14.60;;;;;;;8.68;85.33;98494.28;4959991;28;20050;-76
2021/11/27 08:21:51;;;;;;;27.35;13.52;;;;;;;9.54;82.54;98500.91;4950405;28;20530;-76
2021/11/27 08:24:35;;;;;;;30.58;15.02;;;;;;;9.90;78.12;98504.19;4942033;29;20047;-77
2021/11/27 08:27:21;;;;;;;27.20;15.45;;;;;;;9.97;77.21;98512.41;4947753;29;20545;-76
2021/11/27 08:30:08;;;;;;;33.17;17.42;;;;;;;10.05;76.41;98525.75;4946140;29;20066;-78
2021/11/27 08:32:54;;;;;;;29.90;15.93;;;;;;;10.26;76.92;98523.38;4960838;29;20047;-78
2021/11/27 08:35:39;;;;;;;31.42;17.98;;;;;;;10.07;76.44;98517.22;4966629;28;20054;-78
2021/11/27 08:38:23;;;;;;;29.65;14.15;;;;;;;9.75;78.42;98514.78;4959681;29;20047;-78
2021/11/27 08:41:08;;;;;;;31.52;16.27;;;;;;;9.45;79.38;98516.59;4952521;29;20046;-76
2021/11/27 08:43:53;;;;;;;;;;;;;;;9.40;80.02;98525.84;4965410;28;20069;-75
2021/11/27 08:46:39;;;;;;;29.98;16.35;;;;;;;9.65;78.53;98522.78;4961682;28;19914;-76
2021/11/27 08:49:24;;;;;;;33.42;17.08;;;;;;;9.67;78.33;98528.63;4956840;29;20054;-76
2021/11/27 08:52:09;;;;;;;25.40;12.88;;;;;;;9.91;77.01;98532.88;4965086;28;20066;-76
2021/11/27 08:54:54;;;;;;;35.40;16.30;;;;;;;9.95;77.46;98541.88;4965918;28;20070;-76
2021/11/27 08:57:39;;;;;;;29.75;13.35;;;;;;;10.00;77.31;98534.22;4965104;28;20062;-76
2021/11/27 09:00:24;;;;;;;34.97;18.05;;;;;;;9.56;78.17;98533.84;4968478;28;20058;-75
2021/11/27 09:03:09;;;;;;;;;;;;;;;8.98;80.73;98533.97;4963081;28;20062;-77
2021/11/27 09:05:53;;;;;;;30.17;16.45;;;;;;;8.79;81.92;98531.25;4954840;28;19919;-77
2021/11/27 09:08:39;;;;;;;;;;;;;;;8.79;82.12;98528.53;4958979;28;20050;-77
2021/11/27 09:11:25;;;;;;;30.75;16.92;;;;;;;8.85;82.90;98534.47;4966041;28;19914;-77
2021/11/27 09:14:10;;;;;;;38.20;17.15;;;;;;;8.84;83.53;98549.16;4959002;28;20054;-78
2021/11/27 09:16:55;;;;;;;29.85;14.98;;;;;;;9.01;82.86;98551.44;4961218;28;20046;-77
2021/11/27 09:19:41;;;;;;;;;;;;;;;9.15;81.97;98559.84;4965125;28;20046;-77
2021/11/27 09:22:26;;;;;;;;;;;;;;;8.96;81.00;98560.66;4960081;28;19914;-78
2021/11/27 09:25:11;;;;;;;32.70;16.17;;;;;;;8.98;81.09;98563.00;4957861;28;20618;-77
2021/11/27 09:27:56;;;;;;;;;;;;;;;8.96;81.54;98570.69;4966598;28;20046;-77
2021/11/27 09:30:40;;;;;;;39.45;18.80;;;;;;;9.02;81.09;98566.56;4960890;28;19915;-77
2021/11/27 09:33:26;;;;;;;;;;;;;;;8.86;82.02;98576.69;4961205;28;20058;-77
2021/11/27 09:36:14;;;;;;;37.13;18.90;;;;;;;9.13;81.80;98583.84;4968765;28;19922;-77
2021/11/27 09:38:59;;;;;;;35.42;17.52;;;;;;;9.27;81.15;98586.03;4963338;28;20062;-77
2021/11/27 09:41:46;;;;;;;39.90;19.00;;;;;;;9.49;80.87;98582.59;4944536;29;20047;-76
2021/11/27 09:44:34;;;;;;;40.88;20.23;;;;;;;9.47;80.20;98584.06;4955190;28;20058;-77
2021/11/27 09:47:19;;;;;;;43.60;19.88;;;;;;;9.75;79.99;98584.59;4957116;28;20050;-76
2021/11/27 09:50:09;;;;;;;38.88;20.92;;;;;;;9.79;79.46;98580.00;4962550;28;20054;-76
2021/11/27 09:52:53;;;;;;;42.78;20.75;;;;;;;10.01;78.62;98584.63;4961398;28;20046;-76
2021/11/27 09:55:38;;;;;;;41.85;19.70;;;;;;;10.20;77.32;98598.19;4960255;28;20047;-76
2021/11/27 09:58:24;;;;;;;31.38;16.05;;;;;;;10.58;75.48;98599.91;4958316;28;20054;-76
2021/11/27 10:01:09;;;;;;;39.72;19.40;;;;;;;10.80;75.04;98603.69;4966879;28;20043;-77
2021/11/27 10:04:00;;;;;;;35.60;18.58;;;;;;;10.77;74.08;98590.84;4966809;28;20061;-77
2021/11/27 10:06:46;;;;;;;36.80;18.25;;;;;;;10.33;75.00;98582.44;4964375;28;20050;-76
2021/11/27 10:09:31;;;;;;;40.03;18.67;;;;;;;10.43;75.13;98586.47;4967249;28;20047;-77
2021/11/27 10:12:18;;;;;;;39.40;19.73;;;;;;;10.61;74.29;98587.53;4965390;28;20050;-76
2021/11/27 10:15:04;;;;;;;38.78;19.95;;;;;;;10.63;74.47;98580.56;4963730;28;20050;-76
2021/11/27 10:17:49;;;;;;;38.42;19.95;;;;;;;10.47;75.04;98577.22;4961926;29;20063;-76
2021/11/27 10:20:37;;;;;;;32.00;15.48;;;;;;;10.62;74.62;98578.19;4959974;28;20521;-76
2021/11/27 10:23:32;;;;;;;37.35;18.83;;;;;;;10.87;73.65;98576.59;4962441;28;20498;-77
2021/11/27 10:26:52;;;;;;;39.83;19.75;;;;;;;10.92;72.83;98583.66;4962062;28;20043;-77
2021/11/27 10:29:37;;;;;;;36.08;19.45;;;;;;;11.42;72.24;98579.59;4923580;29;20048;-76
2021/11/27 10:32:30;;;;;;;44.38;18.25;;;;;;;11.41;71.20;98580.72;4961531;28;20043;-77
2021/11/27 10:35:19;;;;;;;39.95;19.13;;;;;;;11.20;71.84;98581.28;4964072;28;20039;-76
2021/11/27 10:38:07;;;;;;;36.83;17.73;;;;;;;11.03;72.40;98581.84;4955236;28;20054;-76
2021/11/27 10:40:57;;;;;;;36.38;18.67;;;;;;;11.06;72.24;98573.75;4961080;28;20047;-75
2021/11/27 10:44:08;;;;;;;39.70;19.38;;;;;;;10.77;73.37;98574.53;4956728;28;20498;-77
2021/11/27 10:46:52;;;;;;;39.55;18.83;;;;;;;10.68;73.19;98565.88;4953516;29;20051;-76
2021/11/27 10:49:38;;;;;;;30.75;16.52;;;;;;;10.90;73.44;98561.50;4964311;28;20058;-77
2021/11/27 10:52:23;;;;;;;40.53;18.33;;;;;;;10.42;74.47;98563.16;4958377;29;20054;-76
2021/11/27 10:55:26;;;;;;;37.10;15.88;;;;;;;10.45;74.29;98565.16;4961117;28;20525;-77
2021/11/27 10:58:13;;;;;;;29.77;15.77;;;;;;;10.53;75.33;98562.16;4966026;28;20502;-76
2021/11/27 11:01:00;;;;;;;36.53;17.95;;;;;;;10.61;74.68;98560.34;4962790;28;20080;-75
2021/11/27 11:03:47;;;;;;;37.40;18.50;;;;;;;10.76;74.15;98559.38;4967254;28;20414;-77
2021/11/27 11:06:32;;;;;;;39.92;19.02;;;;;;;10.80;72.80;98560.22;4961206;28;20047;-76
2021/11/27 11:09:17;;;;;;;36.08;17.67;;;;;;;10.80;73.45;98557.50;4955819;29;20050;-76
2021/11/27 11:12:02;;;;;;;35.25;14.32;;;;;;;10.94;73.34;98573.97;4962570;28;20120;-76
2021/11/27 11:14:46;;;;;;;29.08;15.32;;;;;;;11.01;72.41;98571.34;4966936;28;20054;-77
2021/11/27 11:17:31;;;;;;;35.60;18.20;;;;;;;10.97;71.92;98578.66;4965420;28;20050;-75
2021/11/27 11:20:21;;;;;;;;;;;;;;;11.21;72.43;98571.97;4956150;29;20043;-76
2021/11/27 11:23:15;;;;;;;34.22;16.70;;;;;;;11.57;70.46;98567.69;5000450;23;19922;-60
2021/11/27 11:26:20;;;;;;;36.72;16.63;;;;;;;11.77;68.63;98581.91;4981915;28;20043;-61
2021/11/27 11:29:05;;;;;;;35.00;16.60;;;;;;;11.86;69.80;98569.53;4978139;28;20115;-62
2021/11/27 11:31:49;;;;;;;24.35;11.52;;;;;;;11.62;67.98;98574.72;4976018;28;20054;-60
2021/11/27 11:34:34;;;;;;;;;;;;;;;11.62;67.24;98572.00;4976172;28;20061;-61
2021/11/27 11:37:21;;;;;;;30.80;15.23;;;;;;;11.54;68.00;98573.88;4986677;28;19913;-61
2021/11/27 11:40:06;;;;;;;28.15;12.35;;;;;;;11.57;65.68;98573.13;4992874;28;20050;-61
2021/11/27 11:42:51;;;;;;;30.55;13.98;;;;;;;11.57;67.53;98579.34;4990603;28;20049;-61
2021/11/27 11:45:36;;;;;;;26.77;12.55;;;;;;;11.88;68.10;98569.97;4999887;28;20041;-61
2021/11/27 11:48:25;;;;;;;36.33;15.80;;;;;;;11.75;67.24;98563.22;4996959;28;20053;-62
2021/11/27 11:51:32;;;;;;;35.70;15.63;;;;;;;11.57;67.44;98559.53;4987132;28;21051;-60
2021/11/27 11:54:18;;;;;;;30.08;15.13;;;;;;;11.74;66.84;98564.38;4976983;28;20066;-60
2021/11/27 11:57:06;;;;;;;27.83;14.23;;;;;;;11.84;65.24;98550.06;4984654;28;20042;-61
2021/11/27 11:59:54;;;;;;;32.63;14.40;;;;;;;11.78;66.19;98557.03;4995114;28;20050;-61
2021/11/27 12:02:44;;;;;;;31.55;15.40;;;;;;;11.76;66.74;98540.28;4996545;28;20050;-61
2021/11/27 12:05:32;;;;;;;30.20;14.65;;;;;;;11.79;66.82;98531.34;4999119;28;20057;-61
2021/11/27 12:08:18;;;;;;;29.05;14.43;;;;;;;11.76;67.47;98532.09;4991478;28;20038;-60
2021/11/27 12:11:03;;;;;;;31.45;16.38;;;;;;;11.83;67.53;98524.00;4999129;28;20046;-61
2021/11/27 12:13:48;;;;;;;;;;;;;;;11.86;67.28;98515.06;5000664;28;20053;-61
2021/11/27 12:16:32;;;;;;;31.67;13.55;;;;;;;11.81;67.11;98518.16;4991554;28;19914;-61
2021/11/27 12:19:33;;;;;;;;;;;;;;;11.45;65.58;98513.50;4976306;28;20043;-61
2021/11/27 12:22:27;;;;;;;29.50;13.05;;;;;;;11.69;65.45;98504.78;4974206;28;20283;-63
2021/11/27 12:25:28;;;;;;;27.80;13.85;;;;;;;11.92;65.60;98499.94;4991459;28;20053;-61
2021/11/27 12:28:14;;;;;;;27.40;12.27;;;;;;;11.77;66.30;98506.44;4993288;28;20447;-62
2021/11/27 12:31:03;;;;;;;30.50;13.00;;;;;;;11.46;66.74;98509.63;4990120;28;20412;-61
2021/11/27 12:33:58;;;;;;;29.63;13.82;;;;;;;11.59;65.38;98505.47;4996121;28;20603;-60
2021/11/27 12:36:46;;;;;;;30.50;13.13;;;;;;;11.88;65.49;98511.97;4992678;28;20050;-62
2021/11/27 12:39:33;;;;;;;25.77;13.30;;;;;;;11.97;65.67;98510.50;4988129;28;20663;-61
2021/11/27 12:42:20;;;;;;;23.27;12.15;;;;;;;11.99;65.12;98510.88;4994569;28;20038;-61
2021/11/27 12:45:07;;;;;;;21.70;12.55;;;;;;;11.83;66.78;98521.28;4993369;28;20073;-60
2021/11/27 12:47:52;;;;;;;29.58;12.73;;;;;;;12.16;64.67;98514.91;4997419;28;20514;-60
2021/11/27 12:50:37;;;;;;;18.20;9.52;;;;;;;13.04;62.11;98519.22;4985832;28;20052;-60
2021/11/27 12:53:22;;;;;;;24.25;11.68;;;;;;;12.68;61.11;98521.81;4984867;28;20411;-59
2021/11/27 12:56:07;;;;;;;16.98;8.25;;;;;;;12.78;61.47;98532.00;4990414;28;20054;-62